sensor_id;sensor_type;location;lat;lon;timestamp;pressure;altitude;pressure_sealevel;temperature;humidity
72892;BME280;61032;50.782;6.818;2023-03-14T00:00:30;98184.03;;;11.71;67.24
72892;BME280;61032;50.782;6.818;2023-03-14T00:01:30;98180.88;;;11.65;66.94
72892;BME280;61032;50.782;6.818;2023-03-14T00:02:30;98178.16;;;11.62;67.57
72892;BME280;61032;50.782;6.818;2023-03-14T00:03:30;98172.63;;;11.65;67.46
72892;BME280;61032;50.782;6.818;2023-03-14T00:04:31;98177.34;;;11.68;67.17
72892;BME280;61032;50.782;6.818;2023-03-14T00:05:31;98178.53;;;11.71;67.12
72892;BME280;61032;50.782;6.818;2023-03-14T00:06:31;98193.47;;;11.66;67.45
72892;BME280;61032;50.782;6.818;2023-03-14T00:07:38;98202.53;;;11.63;67.30
72892;BME280;61032;50.782;6.818;2023-03-14T00:08:40;98208.81;;;11.64;67.22
72892;BME280;61032;50.782;6.818;2023-03-14T00:09:40;98217.09;;;11.60;67.14
72892;BME280;61032;50.782;6.818;2023-03-14T00:10:41;98223.34;;;11.64;67.22
72892;BME280;61032;50.782;6.818;2023-03-14T00:11:42;98220.59;;;11.64;67.08
72892;BME280;61032;50.782;6.818;2023-03-14T00:12:42;98223.34;;;11.64;66.69
72892;BME280;61032;50.782;6.818;2023-03-14T00:13:43;98228.47;;;11.66;66.93
72892;BME280;61032;50.782;6.818;2023-03-14T00:14:43;98233.56;;;11.64;67.00
72892;BME280;61032;50.782;6.818;2023-03-14T00:15:44;98237.13;;;11.68;66.79
72892;BME280;61032;50.782;6.818;2023-03-14T00:16:46;98228.50;;;11.62;67.14
72892;BME280;61032;50.782;6.818;2023-03-14T00:17:47;98231.22;;;11.69;66.86
72892;BME280;61032;50.782;6.818;2023-03-14T00:18:47;98218.63;;;11.68;67.12
72892;BME280;61032;50.782;6.818;2023-03-14T00:19:47;98217.47;;;11.62;67.09
72892;BME280;61032;50.782;6.818;2023-03-14T00:20:49;98214.34;;;11.60;67.33
72892;BME280;61032;50.782;6.818;2023-03-14T00:21:50;98222.59;;;11.60;67.17
72892;BME280;61032;50.782;6.818;2023-03-14T00:22:50;98211.19;;;11.62;67.23
72892;BME280;61032;50.782;6.818;2023-03-14T00:23:51;98222.97;;;11.66;67.08
72892;BME280;61032;50.782;6.818;2023-03-14T00:24:51;98226.88;;;11.65;66.82
72892;BME280;61032;50.782;6.818;2023-03-14T00:25:51;98218.63;;;11.72;66.58
72892;BME280;61032;50.782;6.818;2023-03-14T00:26:52;98224.94;;;11.87;66.18
72892;BME280;61032;50.782;6.818;2023-03-14T00:27:52;98224.19;;;11.83;66.16
72892;BME280;61032;50.782;6.818;2023-03-14T00:28:53;98231.66;;;11.79;66.45
72892;BME280;61032;50.782;6.818;2023-03-14T00:29:53;98223.78;;;11.81;66.51
72892;BME280;61032;50.782;6.818;2023-03-14T00:30:54;98225.75;;;11.84;66.71
72892;BME280;61032;50.782;6.818;2023-03-14T00:31:54;98228.09;;;11.85;66.82
72892;BME280;61032;50.782;6.818;2023-03-14T00:32:54;98235.97;;;11.83;66.68
72892;BME280;61032;50.782;6.818;2023-03-14T00:33:55;98233.22;;;11.80;66.89
72892;BME280;61032;50.782;6.818;2023-03-14T00:34:56;98223.78;;;11.77;67.22
72892;BME280;61032;50.782;6.818;2023-03-14T00:35:58;98224.97;;;11.80;67.13
72892;BME280;61032;50.782;6.818;2023-03-14T00:36:59;98227.31;;;11.78;67.17
72892;BME280;61032;50.782;6.818;2023-03-14T00:37:59;98219.81;;;11.75;67.13
72892;BME280;61032;50.782;6.818;2023-03-14T00:38:59;98221.81;;;11.78;67.22
72892;BME280;61032;50.782;6.818;2023-03-14T00:40:00;98226.16;;;11.79;66.93
72892;BME280;61032;50.782;6.818;2023-03-14T00:41:05;98225.38;;;11.78;67.17
72892;BME280;61032;50.782;6.818;2023-03-14T00:42:05;98233.63;;;11.78;67.00
72892;BME280;61032;50.782;6.818;2023-03-14T00:43:06;98224.53;;;11.85;66.98
72892;BME280;61032;50.782;6.818;2023-03-14T00:44:06;98224.56;;;11.78;67.20
72892;BME280;61032;50.782;6.818;2023-03-14T00:45:07;98232.06;;;11.84;67.11
72892;BME280;61032;50.782;6.818;2023-03-14T00:46:08;98233.63;;;11.82;67.04
72892;BME280;61032;50.782;6.818;2023-03-14T00:47:09;98243.06;;;11.81;67.27
72892;BME280;61032;50.782;6.818;2023-03-14T00:48:09;98238.31;;;11.85;67.28
72892;BME280;61032;50.782;6.818;2023-03-14T00:49:10;98235.97;;;11.80;67.07
72892;BME280;61032;50.782;6.818;2023-03-14T00:50:10;98234.41;;;11.82;67.24
72892;BME280;61032;50.782;6.818;2023-03-14T00:51:11;98232.03;;;11.88;67.19
72892;BME280;61032;50.782;6.818;2023-03-14T00:52:14;98241.47;;;11.87;67.09
72892;BME280;61032;50.782;6.818;2023-03-14T00:53:14;98252.09;;;11.92;66.91
72892;BME280;61032;50.782;6.818;2023-03-14T00:54:14;98243.06;;;11.84;67.29
72892;BME280;61032;50.782;6.818;2023-03-14T00:55:15;98243.03;;;11.91;67.17
72892;BME280;61032;50.782;6.818;2023-03-14T00:56:15;98237.53;;;11.98;66.80
72892;BME280;61032;50.782;6.818;2023-03-14T00:57:15;98236.75;;;11.98;66.64
72892;BME280;61032;50.782;6.818;2023-03-14T00:58:17;98242.25;;;11.98;66.78
72892;BME280;61032;50.782;6.818;2023-03-14T00:59:17;98249.34;;;11.99;66.82
72892;BME280;61032;50.782;6.818;2023-03-14T01:00:18;98239.91;;;11.96;67.05
72892;BME280;61032;50.782;6.818;2023-03-14T01:01:18;98232.81;;;11.99;67.10
72892;BME280;61032;50.782;6.818;2023-03-14T01:02:19;98237.53;;;11.95;67.22
72892;BME280;61032;50.782;6.818;2023-03-14T01:03:19;98236.34;;;11.92;67.11
72892;BME280;61032;50.782;6.818;2023-03-14T01:04:19;98238.31;;;11.92;67.34
72892;BME280;61032;50.782;6.818;2023-03-14T01:05:21;98236.34;;;11.85;67.53
72892;BME280;61032;50.782;6.818;2023-03-14T01:06:23;98245.00;;;11.87;67.75
72892;BME280;61032;50.782;6.818;2023-03-14T01:07:23;98243.81;;;11.85;67.73
72892;BME280;61032;50.782;6.818;2023-03-14T01:08:24;98236.38;;;11.82;67.89
72892;BME280;61032;50.782;6.818;2023-03-14T01:09:24;98245.03;;;11.80;68.11
72892;BME280;61032;50.782;6.818;2023-03-14T01:10:25;98248.91;;;11.76;68.79
72892;BME280;61032;50.782;6.818;2023-03-14T01:11:31;98239.13;;;11.78;68.97
72892;BME280;61032;50.782;6.818;2023-03-14T01:12:32;98248.53;;;11.74;69.77
72892;BME280;61032;50.782;6.818;2023-03-14T01:13:32;98248.13;;;11.71;70.12
72892;BME280;61032;50.782;6.818;2023-03-14T01:14:32;98256.03;;;11.77;70.13
72892;BME280;61032;50.782;6.818;2023-03-14T01:15:34;98251.66;;;11.72;70.25
72892;BME280;61032;50.782;6.818;2023-03-14T01:16:34;98250.88;;;11.64;70.03
72892;BME280;61032;50.782;6.818;2023-03-14T01:17:35;98247.72;;;11.66;70.77
72892;BME280;61032;50.782;6.818;2023-03-14T01:18:39;98248.53;;;11.56;71.01
72892;BME280;61032;50.782;6.818;2023-03-14T01:19:40;98242.22;;;11.48;70.99
72892;BME280;61032;50.782;6.818;2023-03-14T01:20:40;98250.06;;;11.32;72.28
72892;BME280;61032;50.782;6.818;2023-03-14T01:21:41;98250.06;;;11.46;71.64
72892;BME280;61032;50.782;6.818;2023-03-14T01:22:42;98250.88;;;11.54;72.13
72892;BME280;61032;50.782;6.818;2023-03-14T01:23:43;98247.34;;;11.53;71.93
72892;BME280;61032;50.782;6.818;2023-03-14T01:24:44;98240.66;;;11.51;72.66
72892;BME280;61032;50.782;6.818;2023-03-14T01:25:44;98246.16;;;11.54;72.93
72892;BME280;61032;50.782;6.818;2023-03-14T01:26:44;98246.56;;;11.53;72.84
72892;BME280;61032;50.782;6.818;2023-03-14T01:27:45;98232.00;;;11.42;72.90
72892;BME280;61032;50.782;6.818;2023-03-14T01:28:46;98241.06;;;11.39;73.28
72892;BME280;61032;50.782;6.818;2023-03-14T01:29:46;98238.25;;;11.14;73.42
72892;BME280;61032;50.782;6.818;2023-03-14T01:30:47;98242.53;;;11.08;74.33
72892;BME280;61032;50.782;6.818;2023-03-14T01:31:47;98237.44;;;11.06;74.45
72892;BME280;61032;50.782;6.818;2023-03-14T01:32:47;98240.22;;;11.13;74.40
72892;BME280;61032;50.782;6.818;2023-03-14T01:33:48;98243.31;;;11.05;74.41
72892;BME280;61032;50.782;6.818;2023-03-14T01:34:48;98242.91;;;11.02;74.37
72892;BME280;61032;50.782;6.818;2023-03-14T01:35:49;98242.13;;;11.02;74.37
72892;BME280;61032;50.782;6.818;2023-03-14T01:36:50;98240.13;;;10.78;75.18
72892;BME280;61032;50.782;6.818;2023-03-14T01:37:50;98228.31;;;10.70;75.20
72892;BME280;61032;50.782;6.818;2023-03-14T01:38:50;98228.25;;;10.56;75.76
72892;BME280;61032;50.782;6.818;2023-03-14T01:39:51;98235.72;;;10.59;75.76
72892;BME280;61032;50.782;6.818;2023-03-14T01:40:51;98232.13;;;10.48;75.96
72892;BME280;61032;50.782;6.818;2023-03-14T01:41:51;98238.78;;;10.47;75.95
72892;BME280;61032;50.782;6.818;2023-03-14T01:42:56;98231.41;;;10.58;75.47
72892;BME280;61032;50.782;6.818;2023-03-14T01:43:57;98228.97;;;10.42;74.97
72892;BME280;61032;50.782;6.818;2023-03-14T01:45:00;98236.00;;;10.36;75.53
72892;BME280;61032;50.782;6.818;2023-03-14T01:47:06;98232.91;;;10.48;75.65
72892;BME280;61032;50.782;6.818;2023-03-14T01:48:06;98226.22;;;10.39;76.20
72892;BME280;61032;50.782;6.818;2023-03-14T01:50:24;98215.63;;;10.37;76.45
72892;BME280;61032;50.782;6.818;2023-03-14T01:52:37;98217.50;;;10.26;77.14
72892;BME280;61032;50.782;6.818;2023-03-14T01:53:42;98220.28;;;10.29;77.40
72892;BME280;61032;50.782;6.818;2023-03-14T01:54:50;98217.56;;;10.33;77.59
72892;BME280;61032;50.782;6.818;2023-03-14T01:55:54;98206.19;;;10.35;77.46
72892;BME280;61032;50.782;6.818;2023-03-14T01:57:06;98203.44;;;10.42;77.10
72892;BME280;61032;50.782;6.818;2023-03-14T01:58:08;98203.03;;;10.40;77.00
72892;BME280;61032;50.782;6.818;2023-03-14T01:59:10;98209.34;;;10.44;76.32
72892;BME280;61032;50.782;6.818;2023-03-14T02:00:14;98202.66;;;10.41;77.03
72892;BME280;61032;50.782;6.818;2023-03-14T02:01:18;98197.56;;;10.36;76.95
72892;BME280;61032;50.782;6.818;2023-03-14T02:02:20;98188.53;;;10.36;76.90
72892;BME280;61032;50.782;6.818;2023-03-14T02:03:22;98196.41;;;10.44;76.56
72892;BME280;61032;50.782;6.818;2023-03-14T02:04:25;98201.88;;;10.37;76.51
72892;BME280;61032;50.782;6.818;2023-03-14T02:05:32;98201.88;;;10.41;76.42
72892;BME280;61032;50.782;6.818;2023-03-14T02:06:40;98205.03;;;10.39;76.18
72892;BME280;61032;50.782;6.818;2023-03-14T02:07:55;98204.59;;;10.33;76.28
72892;BME280;61032;50.782;6.818;2023-03-14T02:08:56;98206.94;;;10.28;75.94
72892;BME280;61032;50.782;6.818;2023-03-14T02:09:58;98205.72;;;10.25;76.89
72892;BME280;61032;50.782;6.818;2023-03-14T02:10:59;98195.56;;;10.29;76.68
72892;BME280;61032;50.782;6.818;2023-03-14T02:11:59;98195.19;;;10.35;76.18
72892;BME280;61032;50.782;6.818;2023-03-14T02:13:02;98192.84;;;10.33;76.21
72892;BME280;61032;50.782;6.818;2023-03-14T02:14:03;98200.28;;;10.32;76.54
72892;BME280;61032;50.782;6.818;2023-03-14T02:15:04;98187.72;;;10.31;76.33
72892;BME280;61032;50.782;6.818;2023-03-14T02:16:05;98188.50;;;10.28;76.08
72892;BME280;61032;50.782;6.818;2023-03-14T02:17:06;98188.09;;;10.26;76.77
72892;BME280;61032;50.782;6.818;2023-03-14T02:18:08;98194.38;;;10.27;76.47
72892;BME280;61032;50.782;6.818;2023-03-14T02:19:10;98197.81;;;10.17;76.84
72892;BME280;61032;50.782;6.818;2023-03-14T02:20:48;98197.03;;;10.13;77.05
72892;BME280;61032;50.782;6.818;2023-03-14T02:22:06;98200.94;;;10.12;76.69
72892;BME280;61032;50.782;6.818;2023-03-14T02:23:09;98201.28;;;10.07;77.12
72892;BME280;61032;50.782;6.818;2023-03-14T02:24:22;98191.84;;;10.04;77.21
72892;BME280;61032;50.782;6.818;2023-03-14T02:25:47;98189.47;;;9.99;77.18
72892;BME280;61032;50.782;6.818;2023-03-14T02:27:02;98187.91;;;10.02;77.09
72892;BME280;61032;50.782;6.818;2023-03-14T02:28:02;98193.44;;;10.05;77.32
72892;BME280;61032;50.782;6.818;2023-03-14T02:29:03;98188.31;;;10.00;77.19
72892;BME280;61032;50.782;6.818;2023-03-14T02:31:06;98184.38;;;9.97;77.69
72892;BME280;61032;50.782;6.818;2023-03-14T02:32:08;98182.41;;;9.98;77.89
72892;BME280;61032;50.782;6.818;2023-03-14T02:33:19;98175.75;;;9.95;77.68
72892;BME280;61032;50.782;6.818;2023-03-14T02:34:20;98167.88;;;9.90;77.43
72892;BME280;61032;50.782;6.818;2023-03-14T02:35:24;98171.78;;;9.89;77.21
72892;BME280;61032;50.782;6.818;2023-03-14T02:36:26;98162.72;;;9.82;77.87
72892;BME280;61032;50.782;6.818;2023-03-14T02:38:39;98167.81;;;9.83;77.90
72892;BME280;61032;50.782;6.818;2023-03-14T02:39:36;98177.59;;;9.81;78.15
72892;BME280;61032;50.782;6.818;2023-03-14T02:40:38;98168.59;;;9.84;77.91
72892;BME280;61032;50.782;6.818;2023-03-14T02:41:38;98169.78;;;9.83;77.96
72892;BME280;61032;50.782;6.818;2023-03-14T02:42:38;98169.00;;;9.86;77.88
72892;BME280;61032;50.782;6.818;2023-03-14T02:43:38;98156.06;;;9.83;78.15
72892;BME280;61032;50.782;6.818;2023-03-14T02:44:48;98158.44;;;9.88;77.87
72892;BME280;61032;50.782;6.818;2023-03-14T02:45:51;98160.03;;;9.92;77.78
72892;BME280;61032;50.782;6.818;2023-03-14T02:46:52;98148.72;;;9.97;76.98
72892;BME280;61032;50.782;6.818;2023-03-14T02:47:55;98151.09;;;10.06;76.95
72892;BME280;61032;50.782;6.818;2023-03-14T02:49:04;98147.16;;;10.07;76.24
72892;BME280;61032;50.782;6.818;2023-03-14T02:50:12;98141.31;;;10.12;75.72
72892;BME280;61032;50.782;6.818;2023-03-14T02:51:13;98140.56;;;10.15;75.64
72892;BME280;61032;50.782;6.818;2023-03-14T02:52:14;98136.28;;;10.21;75.58
72892;BME280;61032;50.782;6.818;2023-03-14T02:53:21;98131.19;;;10.23;75.07
72892;BME280;61032;50.782;6.818;2023-03-14T02:54:23;98132.78;;;10.28;74.98
72892;BME280;61032;50.782;6.818;2023-03-14T02:55:24;98134.75;;;10.31;74.80
72892;BME280;61032;50.782;6.818;2023-03-14T02:56:26;98134.38;;;10.40;74.66
72892;BME280;61032;50.782;6.818;2023-03-14T02:57:26;98129.69;;;10.44;74.82
72892;BME280;61032;50.782;6.818;2023-03-14T02:58:27;98126.94;;;10.44;74.35
72892;BME280;61032;50.782;6.818;2023-03-14T02:59:27;98129.69;;;10.44;74.47
72892;BME280;61032;50.782;6.818;2023-03-14T03:00:28;98124.59;;;10.46;74.53
72892;BME280;61032;50.782;6.818;2023-03-14T03:01:30;98127.72;;;10.44;74.07
72892;BME280;61032;50.782;6.818;2023-03-14T03:02:31;98128.16;;;10.50;74.26
72892;BME280;61032;50.782;6.818;2023-03-14T03:03:31;98132.88;;;10.53;74.33
72892;BME280;61032;50.782;6.818;2023-03-14T03:04:31;98127.38;;;10.56;73.96
72892;BME280;61032;50.782;6.818;2023-03-14T03:05:32;98126.63;;;10.59;73.47
72892;BME280;61032;50.782;6.818;2023-03-14T03:06:32;98131.31;;;10.62;73.41
72892;BME280;61032;50.782;6.818;2023-03-14T03:07:33;98131.31;;;10.66;73.08
72892;BME280;61032;50.782;6.818;2023-03-14T03:08:33;98121.50;;;10.65;73.45
72892;BME280;61032;50.782;6.818;2023-03-14T03:09:33;98129.38;;;10.70;73.10
72892;BME280;61032;50.782;6.818;2023-03-14T03:10:34;98131.72;;;10.72;72.80
72892;BME280;61032;50.782;6.818;2023-03-14T03:11:34;98130.56;;;10.69;73.05
72892;BME280;61032;50.782;6.818;2023-03-14T03:12:35;98135.28;;;10.72;72.61
72892;BME280;61032;50.782;6.818;2023-03-14T03:13:35;98123.50;;;10.75;72.73
72892;BME280;61032;50.782;6.818;2023-03-14T03:14:35;98130.56;;;10.76;72.87
72892;BME280;61032;50.782;6.818;2023-03-14T03:15:37;98132.53;;;10.72;72.89
72892;BME280;61032;50.782;6.818;2023-03-14T03:16:38;98130.56;;;10.69;73.12
72892;BME280;61032;50.782;6.818;2023-03-14T03:17:38;98130.94;;;10.71;73.17
72892;BME280;61032;50.782;6.818;2023-03-14T03:18:38;98123.50;;;10.75;73.18
72892;BME280;61032;50.782;6.818;2023-03-14T03:19:38;98129.00;;;10.82;73.21
72892;BME280;61032;50.782;6.818;2023-03-14T03:20:39;98115.28;;;10.89;72.72
72892;BME280;61032;50.782;6.818;2023-03-14T03:21:39;98122.72;;;10.89;72.48
72892;BME280;61032;50.782;6.818;2023-03-14T03:22:40;98125.47;;;10.85;72.31
72892;BME280;61032;50.782;6.818;2023-03-14T03:23:40;98115.63;;;10.81;72.48
72892;BME280;61032;50.782;6.818;2023-03-14T03:24:40;98117.22;;;10.82;72.53
72892;BME280;61032;50.782;6.818;2023-03-14T03:25:41;98121.53;;;10.86;73.01
72892;BME280;61032;50.782;6.818;2023-03-14T03:26:41;98125.47;;;10.89;72.42
72892;BME280;61032;50.782;6.818;2023-03-14T03:27:41;98117.63;;;10.87;72.77
72892;BME280;61032;50.782;6.818;2023-03-14T03:28:42;98121.94;;;10.88;73.14
72892;BME280;61032;50.782;6.818;2023-03-14T03:29:42;98113.69;;;10.81;72.87
72892;BME280;61032;50.782;6.818;2023-03-14T03:30:43;98112.50;;;10.75;72.85
72892;BME280;61032;50.782;6.818;2023-03-14T03:31:43;98114.84;;;10.73;72.72
72892;BME280;61032;50.782;6.818;2023-03-14T03:32:45;98116.44;;;10.81;72.77
72892;BME280;61032;50.782;6.818;2023-03-14T03:33:45;98114.06;;;10.83;72.51
72892;BME280;61032;50.782;6.818;2023-03-14T03:34:45;98117.63;;;10.91;72.75
72892;BME280;61032;50.782;6.818;2023-03-14T03:35:48;98118.03;;;10.89;72.48
72892;BME280;61032;50.782;6.818;2023-03-14T03:36:49;98113.69;;;10.85;72.22
72892;BME280;61032;50.782;6.818;2023-03-14T03:37:49;98110.94;;;10.88;72.37
72892;BME280;61032;50.782;6.818;2023-03-14T03:38:49;98105.44;;;10.81;72.58
72892;BME280;61032;50.782;6.818;2023-03-14T03:39:51;98108.19;;;10.81;72.99
72892;BME280;61032;50.782;6.818;2023-03-14T03:40:51;98104.25;;;10.82;72.73
72892;BME280;61032;50.782;6.818;2023-03-14T03:41:52;98117.22;;;10.82;72.56
72892;BME280;61032;50.782;6.818;2023-03-14T03:42:52;98110.94;;;10.88;72.60
72892;BME280;61032;50.782;6.818;2023-03-14T03:43:52;98110.16;;;10.91;72.43
72892;BME280;61032;50.782;6.818;2023-03-14T03:44:54;98102.31;;;10.93;72.33
72892;BME280;61032;50.782;6.818;2023-03-14T03:45:54;98107.41;;;10.91;72.32
72892;BME280;61032;50.782;6.818;2023-03-14T03:46:54;98102.72;;;10.92;72.43
72892;BME280;61032;50.782;6.818;2023-03-14T03:47:55;98110.19;;;10.95;72.47
72892;BME280;61032;50.782;6.818;2023-03-14T03:48:59;98110.16;;;10.91;72.29
72892;BME280;61032;50.782;6.818;2023-03-14T03:50:00;98101.13;;;10.87;72.38
72892;BME280;61032;50.782;6.818;2023-03-14T03:51:00;98114.09;;;10.87;72.70
72892;BME280;61032;50.782;6.818;2023-03-14T03:52:00;98101.91;;;10.91;72.47
72892;BME280;61032;50.782;6.818;2023-03-14T03:53:01;98097.59;;;10.90;72.48
72892;BME280;61032;50.782;6.818;2023-03-14T03:54:01;98103.09;;;10.90;72.93
72892;BME280;61032;50.782;6.818;2023-03-14T03:55:01;98106.25;;;10.92;73.07
72892;BME280;61032;50.782;6.818;2023-03-14T03:56:02;98106.25;;;10.92;73.21
72892;BME280;61032;50.782;6.818;2023-03-14T03:57:03;98101.53;;;10.89;73.30
72892;BME280;61032;50.782;6.818;2023-03-14T03:58:03;98101.13;;;10.87;73.21
72892;BME280;61032;50.782;6.818;2023-03-14T03:59:03;98098.78;;;10.86;73.08
72892;BME280;61032;50.782;6.818;2023-03-14T04:00:05;98104.66;;;10.84;73.25
72892;BME280;61032;50.782;6.818;2023-03-14T04:01:06;98097.59;;;10.83;73.80
72892;BME280;61032;50.782;6.818;2023-03-14T04:02:07;98096.41;;;10.84;73.34
72892;BME280;61032;50.782;6.818;2023-03-14T04:03:07;98099.16;;;10.84;73.33
72892;BME280;61032;50.782;6.818;2023-03-14T04:04:08;98098.38;;;10.84;73.77
72892;BME280;61032;50.782;6.818;2023-03-14T04:05:08;98095.22;;;10.82;73.60
72892;BME280;61032;50.782;6.818;2023-03-14T04:06:11;98098.38;;;10.91;73.59
72892;BME280;61032;50.782;6.818;2023-03-14T04:07:12;98088.19;;;10.91;73.30
72892;BME280;61032;50.782;6.818;2023-03-14T04:08:14;98092.50;;;10.89;73.87
72892;BME280;61032;50.782;6.818;2023-03-14T04:09:14;98093.66;;;10.84;74.08
72892;BME280;61032;50.782;6.818;2023-03-14T04:10:14;98102.69;;;10.81;74.19
72892;BME280;61032;50.782;6.818;2023-03-14T04:11:15;98091.31;;;10.86;73.76
72892;BME280;61032;50.782;6.818;2023-03-14T04:12:15;98097.19;;;10.85;73.87
72892;BME280;61032;50.782;6.818;2023-03-14T04:13:16;98096.03;;;10.96;73.62
72892;BME280;61032;50.782;6.818;2023-03-14T04:14:16;98097.59;;;11.05;73.42
72892;BME280;61032;50.782;6.818;2023-03-14T04:15:16;98107.03;;;10.96;73.30
72892;BME280;61032;50.782;6.818;2023-03-14T04:16:21;98109.38;;;10.91;73.58
72892;BME280;61032;50.782;6.818;2023-03-14T04:17:22;98103.09;;;10.94;73.66
72892;BME280;61032;50.782;6.818;2023-03-14T04:18:23;98104.28;;;10.89;74.45
72892;BME280;61032;50.782;6.818;2023-03-14T04:19:26;98103.88;;;10.87;74.17
72892;BME280;61032;50.782;6.818;2023-03-14T04:20:27;98109.75;;;10.75;75.30
72892;BME280;61032;50.782;6.818;2023-03-14T04:21:27;98108.59;;;10.80;74.89
72892;BME280;61032;50.782;6.818;2023-03-14T04:22:27;98102.31;;;10.79;75.69
72892;BME280;61032;50.782;6.818;2023-03-14T04:23:28;98100.72;;;10.82;75.73
72892;BME280;61032;50.782;6.818;2023-03-14T04:24:28;98101.53;;;10.75;75.85
72892;BME280;61032;50.782;6.818;2023-03-14T04:25:28;98090.13;;;10.70;76.55
72892;BME280;61032;50.782;6.818;2023-03-14T04:26:29;98086.97;;;10.71;76.44
72892;BME280;61032;50.782;6.818;2023-03-14T04:27:29;98088.16;;;10.74;76.28
72892;BME280;61032;50.782;6.818;2023-03-14T04:28:29;98093.66;;;10.74;76.64
72892;BME280;61032;50.782;6.818;2023-03-14T04:29:30;98086.59;;;10.69;76.43
72892;BME280;61032;50.782;6.818;2023-03-14T04:30:30;98089.34;;;10.73;76.16
72892;BME280;61032;50.782;6.818;2023-03-14T04:31:30;98085.41;;;10.70;76.31
72892;BME280;61032;50.782;6.818;2023-03-14T04:32:31;98084.63;;;10.73;76.01
72892;BME280;61032;50.782;6.818;2023-03-14T04:33:31;98077.97;;;10.74;76.03
72892;BME280;61032;50.782;6.818;2023-03-14T04:34:31;98085.03;;;10.72;76.38
72892;BME280;61032;50.782;6.818;2023-03-14T04:35:32;98082.25;;;10.68;76.46
72892;BME280;61032;50.782;6.818;2023-03-14T04:36:32;98080.69;;;10.67;76.27
72892;BME280;61032;50.782;6.818;2023-03-14T04:37:32;98076.78;;;10.68;76.13
72892;BME280;61032;50.782;6.818;2023-03-14T04:38:32;98080.69;;;10.67;76.23
72892;BME280;61032;50.782;6.818;2023-03-14T04:39:33;98081.88;;;10.66;76.53
72892;BME280;61032;50.782;6.818;2023-03-14T04:40:33;98080.28;;;10.65;76.74
72892;BME280;61032;50.782;6.818;2023-03-14T04:41:36;98074.00;;;10.64;76.89
72892;BME280;61032;50.782;6.818;2023-03-14T04:42:36;98078.72;;;10.67;76.84
72892;BME280;61032;50.782;6.818;2023-03-14T04:43:37;98078.34;;;10.69;76.67
72892;BME280;61032;50.782;6.818;2023-03-14T04:44:37;98074.00;;;10.64;76.32
72892;BME280;61032;50.782;6.818;2023-03-14T04:45:41;98073.63;;;10.62;76.71
72892;BME280;61032;50.782;6.818;2023-03-14T04:46:41;98079.50;;;10.61;77.21
72892;BME280;61032;50.782;6.818;2023-03-14T04:47:42;98078.72;;;10.64;77.16
72892;BME280;61032;50.782;6.818;2023-03-14T04:48:42;98071.66;;;10.59;77.25
72892;BME280;61032;50.782;6.818;2023-03-14T04:49:42;98077.16;;;10.63;76.93
72892;BME280;61032;50.782;6.818;2023-03-14T04:50:43;98063.81;;;10.58;77.57
72892;BME280;61032;50.782;6.818;2023-03-14T04:51:43;98064.59;;;10.51;77.44
72892;BME280;61032;50.782;6.818;2023-03-14T04:52:43;98064.56;;;10.44;77.89
72892;BME280;61032;50.782;6.818;2023-03-14T04:53:44;98066.94;;;10.49;77.51
72892;BME280;61032;50.782;6.818;2023-03-14T04:54:44;98066.53;;;10.51;77.29
72892;BME280;61032;50.782;6.818;2023-03-14T04:55:49;98055.56;;;10.51;77.63
72892;BME280;61032;50.782;6.818;2023-03-14T04:56:49;98048.88;;;10.45;77.46
72892;BME280;61032;50.782;6.818;2023-03-14T04:57:49;98053.19;;;10.39;77.77
72892;BME280;61032;50.782;6.818;2023-03-14T04:58:50;98052.38;;;10.42;77.62
72892;BME280;61032;50.782;6.818;2023-03-14T04:59:50;98052.78;;;10.47;77.51
72892;BME280;61032;50.782;6.818;2023-03-14T05:00:51;98056.72;;;10.50;77.48
72892;BME280;61032;50.782;6.818;2023-03-14T05:01:51;98052.00;;;10.43;76.95
72892;BME280;61032;50.782;6.818;2023-03-14T05:02:51;98044.94;;;10.42;76.98
72892;BME280;61032;50.782;6.818;2023-03-14T05:03:52;98042.59;;;10.37;76.76
72892;BME280;61032;50.782;6.818;2023-03-14T05:04:52;98046.50;;;10.43;76.41
72892;BME280;61032;50.782;6.818;2023-03-14T05:05:52;98039.47;;;10.39;76.40
72892;BME280;61032;50.782;6.818;2023-03-14T05:06:53;98040.63;;;10.34;76.43
72892;BME280;61032;50.782;6.818;2023-03-14T05:07:53;98044.13;;;10.31;76.30
72892;BME280;61032;50.782;6.818;2023-03-14T05:08:53;98051.97;;;10.29;76.56
72892;BME280;61032;50.782;6.818;2023-03-14T05:09:54;98037.84;;;10.30;76.21
72892;BME280;61032;50.782;6.818;2023-03-14T05:10:55;98040.59;;;10.30;76.01
72892;BME280;61032;50.782;6.818;2023-03-14T05:11:56;98036.72;;;10.39;76.36
72892;BME280;61032;50.782;6.818;2023-03-14T05:12:56;98035.50;;;10.40;76.51
72892;BME280;61032;50.782;6.818;2023-03-14T05:13:57;98028.06;;;10.37;76.84
72892;BME280;61032;50.782;6.818;2023-03-14T05:14:57;98028.47;;;10.39;75.70
72892;BME280;61032;50.782;6.818;2023-03-14T05:16:08;98019.03;;;10.36;75.58
72892;BME280;61032;50.782;6.818;2023-03-14T05:17:09;98030.03;;;10.43;75.42
72892;BME280;61032;50.782;6.818;2023-03-14T05:18:10;98030.03;;;10.43;75.01
72892;BME280;61032;50.782;6.818;2023-03-14T05:19:10;98033.56;;;10.37;75.39
72892;BME280;61032;50.782;6.818;2023-03-14T05:20:11;98029.63;;;10.45;75.28
72892;BME280;61032;50.782;6.818;2023-03-14T05:21:14;98029.63;;;10.45;74.71
72892;BME280;61032;50.782;6.818;2023-03-14T05:22:15;98028.84;;;10.41;74.64
72892;BME280;61032;50.782;6.818;2023-03-14T05:23:15;98028.84;;;10.41;74.53
72892;BME280;61032;50.782;6.818;2023-03-14T05:24:15;98023.75;;;10.39;74.47
72892;BME280;61032;50.782;6.818;2023-03-14T05:25:15;98022.97;;;10.42;74.63
72892;BME280;61032;50.782;6.818;2023-03-14T05:26:16;98027.25;;;10.40;74.42
72892;BME280;61032;50.782;6.818;2023-03-14T05:27:17;98024.53;;;10.40;74.35
72892;BME280;61032;50.782;6.818;2023-03-14T05:28:17;98022.19;;;10.38;74.80
72892;BME280;61032;50.782;6.818;2023-03-14T05:29:17;98027.69;;;10.38;74.76
72892;BME280;61032;50.782;6.818;2023-03-14T05:30:17;98024.53;;;10.36;74.49
72892;BME280;61032;50.782;6.818;2023-03-14T05:31:18;98020.22;;;10.31;75.13